Portada
METAR-TAF:

METAR-TAF

Aeropuertos :

Davenport Municipal Airport

Davenport, Iowa, Estados Unidos

latitud: 41-36-50N, longitud: 090-35-29W, altitud: 229 m

Observación

El informe se hizo hace 1 hora y 13 minutos, a las 18:52 UTC
Viento 6 kt con dirección variable
Temperatura 29°C
Humedad 66%
Presión 1023 hPa
Visibilidad: 16.1 km
Cielo nuboso a una altura de 3200 ft

METAR: KDVN 191852Z AUTO VRB06KT 10SM BKN032 29/22 A3020 RMK AO2 SLP218 T02940217

Hora: 15:05 (20:05 UTC)


TAF: falta

Observaciones y pronósticos meteorológicos de más de 4000 aeropuertos (mensajes METAR y TAF).

Los puntos amarillos y rojos representan las estaciones disponibles.

Ponga el ratón en el punto deseado para ver el nombre de la estación.

Haga clic para ver las observaciones y los pronósticos meteorológicos.

Para cambiar el mapa : haga clic en los botones verdes con una cruz de color negro para hacer un zoom, en el botón verde con un guión para alejar o en las flechas verdes para mapas adyacentes.


METAR-TAF: